Paddington, United Kingdom
Current Conditions -  °F | °C
As of 3:20 PM on Thursday 30 Oct 2014 (Local Time) from EGLC Reporting Station
Scattered Clouds Scattered Clouds  
Wind Chill: 66°   Ceiling: Unl
Heat Index: 66°   Visibility: 6mi
Dew Point: 57°   Wind: 3mph
Humidity: 73%   Direction: 220°SW
Pressure: 30.06"   Gusts: NA
Location:  51.51°N, 0.17°W
Report Text: EGLC 301520Z 22003KT 9999 SCT020 19/14 Q1018
Loading
Personal Weather Stations






























Interactive Weather Map New forecast layout! Learn more

10-Day Weather Forecast

Advertisements
Track Severe Weather on mobile